Time;durP1;ratioP1;P1;durP2;ratioP2;P2;SDS_P1;SDS_P2;PMS_P1;PMS_P2;Temp;Humidity;BMP_temperature;BMP_pressure;BME280_temperature;BME280_humidity;BME280_pressure;Samples;Min_cycle;Max_cycle;Signal;HPM_P1;HPM_P2
2023/08/10 00:01:45;;;;;;;9.20;7.90;;;;;;;13.53;77.41;99267.44;105793;1258;61463;-24
2023/08/10 00:04:12;;;;;;;11.30;8.90;;;;;;;13.61;76.65;99267.89;105896;1254;73845;-23
2023/08/10 00:06:39;;;;;;;5.80;4.40;;;;;;;13.45;76.48;99266.77;105805;1260;74377;-24
2023/08/10 00:09:08;;;;;;;10.10;8.20;;;;;;;13.20;76.75;99268.95;105809;1254;72537;-23
2023/08/10 00:11:35;;;;;;;12.60;7.30;;;;;;;12.92;77.25;99265.15;105873;1253;61155;-23
2023/08/10 00:14:03;;;;;;;16.50;11.70;;;;;;;12.67;77.56;99267.71;105836;1259;61108;-23
2023/08/10 00:16:32;;;;;;;8.20;3.70;;;;;;;12.44;78.41;99267.50;105704;1254;73796;-23
2023/08/10 00:19:00;;;;;;;7.00;2.90;;;;;;;12.85;78.86;99266.80;105636;1260;73469;-23
2023/08/10 00:21:28;;;;;;;7.30;2.60;;;;;;;13.34;77.37;99261.50;105697;1259;71758;-23
2023/08/10 00:23:58;;;;;;;7.80;3.40;;;;;;;13.36;76.56;99259.93;105587;1254;61049;-23
2023/08/10 00:26:31;;;;;;;11.60;4.60;;;;;;;13.15;76.61;99258.80;105601;1260;62795;-23
2023/08/10 00:28:58;;;;;;;12.70;4.00;;;;;;;12.90;77.00;99260.99;105683;1260;73752;-22
2023/08/10 00:31:26;;;;;;;8.00;2.90;;;;;;;12.64;77.40;99262.69;105635;1260;74302;-23
2023/08/10 00:33:53;;;;;;;9.60;4.50;;;;;;;12.40;77.99;99260.94;105683;1255;73506;-23
2023/08/10 00:36:20;;;;;;;6.60;2.50;;;;;;;12.18;78.79;99254.88;105585;1259;61129;-23
2023/08/10 00:38:47;;;;;;;5.90;2.70;;;;;;;12.61;79.41;99257.73;105902;1259;61205;-23
2023/08/10 00:41:14;;;;;;;8.00;3.60;;;;;;;13.12;77.87;99255.27;105923;1259;73889;-23
2023/08/10 00:43:42;;;;;;;6.90;3.20;;;;;;;13.17;77.18;99257.08;105553;1259;74368;-23
2023/08/10 00:46:10;;;;;;;9.90;4.40;;;;;;;13.00;77.13;99261.64;105650;1259;72440;-23
2023/08/10 00:48:37;;;;;;;9.80;3.80;;;;;;;12.77;77.61;99268.72;105626;1258;61233;-23
2023/08/10 00:51:04;;;;;;;8.60;4.20;;;;;;;12.52;78.28;99265.42;105485;1260;61114;-23
2023/08/10 00:53:30;;;;;;;11.60;5.40;;;;;;;12.31;78.51;99265.69;105466;1260;73814;-23
2023/08/10 00:55:57;;;;;;;19.80;7.00;;;;;;;12.63;78.10;99269.03;105561;1255;74799;-23
2023/08/10 00:58:24;;;;;;;16.20;7.40;;;;;;;13.04;76.40;99272.77;105693;1254;72594;-23
2023/08/10 01:00:51;;;;;;;14.50;6.30;;;;;;;13.01;75.89;99272.42;105915;1252;61150;-23
2023/08/10 01:03:18;;;;;;;13.90;5.70;;;;;;;12.84;76.27;99272.27;105860;1266;61103;-23
2023/08/10 01:05:52;;;;;;;11.80;6.50;;;;;;;12.56;76.52;99272.42;105696;1257;72877;-23
2023/08/10 01:08:24;;;;;;;9.20;4.90;;;;;;;12.25;76.74;99273.47;105424;1258;73030;-23
2023/08/10 01:11:22;;;;;;;7.40;3.90;;;;;;;11.98;76.85;99270.37;105706;1260;71529;-23
2023/08/10 01:13:55;;;;;;;5.30;1.90;;;;;;;11.70;77.62;99272.58;105865;1257;61993;-23
2023/08/10 01:16:23;;;;;;;4.60;2.10;;;;;;;12.21;78.21;99277.29;105884;1260;61140;-23
2023/08/10 01:18:50;;;;;;;5.60;2.10;;;;;;;12.65;77.21;99275.70;105688;1255;73797;-23
2023/08/10 01:21:27;;;;;;;3.40;1.90;;;;;;;12.64;77.45;99278.52;105744;1260;74614;-23
2023/08/10 01:23:55;;;;;;;2.50;1.90;;;;;;;12.43;78.24;99278.78;105387;1260;72355;-23
2023/08/10 01:26:22;;;;;;;3.30;2.10;;;;;;;12.16;78.43;99278.23;105625;1255;61126;-23
2023/08/10 01:28:49;;;;;;;7.60;2.20;;;;;;;11.95;79.09;99277.52;105656;1260;61142;-23
2023/08/10 01:31:17;;;;;;;4.20;1.90;;;;;;;11.79;79.65;99278.51;105590;1260;73910;-23
2023/08/10 01:33:43;;;;;;;6.90;1.80;;;;;;;12.12;78.89;99276.85;105569;1254;74291;-23
2023/08/10 01:36:10;;;;;;;4.60;2.40;;;;;;;12.57;76.98;99281.70;105573;1259;72588;-23
2023/08/10 01:38:37;;;;;;;4.80;2.80;;;;;;;12.63;76.54;99282.30;105641;1259;61051;-23
2023/08/10 01:41:04;;;;;;;6.80;3.10;;;;;;;12.43;77.50;99283.08;105607;1263;61092;-23
2023/08/10 01:43:31;;;;;;;6.60;3.80;;;;;;;12.17;77.76;99286.75;105616;1254;73918;-23
2023/08/10 01:45:57;;;;;;;8.50;4.90;;;;;;;11.91;77.79;99286.25;105855;1257;75000;-23
2023/08/10 01:48:27;;;;;;;10.40;6.00;;;;;;;11.69;78.20;99289.20;105656;1260;72584;-23
2023/08/10 01:50:53;;;;;;;8.90;4.90;;;;;;;11.52;78.26;99290.61;105296;1260;61145;-24
2023/08/10 01:53:25;;;;;;;10.40;5.30;;;;;;;11.93;78.08;99286.95;105450;1269;61144;-23
2023/08/10 01:55:52;;;;;;;13.90;7.40;;;;;;;12.43;76.63;99288.71;105568;1262;72566;-23
2023/08/10 01:58:19;;;;;;;13.20;7.40;;;;;;;12.44;75.92;99287.04;105705;1258;74841;-23
2023/08/10 02:00:46;;;;;;;12.60;7.80;;;;;;;12.25;76.18;99287.56;105821;1257;72673;-23
2023/08/10 02:03:13;;;;;;;12.50;7.90;;;;;;;12.03;76.54;99287.15;105714;1257;61023;-23
2023/08/10 02:05:40;;;;;;;15.00;8.30;;;;;;;11.79;77.48;99287.21;105557;1257;61221;-23
2023/08/10 02:08:07;;;;;;;17.60;8.30;;;;;;;11.59;78.27;99285.73;105511;1255;73801;-23
2023/08/10 02:10:34;;;;;;;10.00;5.20;;;;;;;11.45;78.51;99283.86;105550;1259;74316;-23
2023/08/10 02:13:01;;;;;;;9.70;5.40;;;;;;;11.93;78.91;99286.38;105583;1259;72685;-23
2023/08/10 02:15:28;;;;;;;11.10;7.10;;;;;;;12.54;77.77;99288.97;105856;1258;61115;-23
2023/08/10 02:17:56;;;;;;;14.20;7.00;;;;;;;12.67;76.91;99284.18;105911;1254;61218;-24
2023/08/10 02:20:23;;;;;;;12.80;6.90;;;;;;;12.53;76.66;99286.27;105847;1257;73906;-24
2023/08/10 02:22:52;;;;;;;12.70;6.20;;;;;;;12.31;77.13;99287.96;105526;1255;73388;-23
2023/08/10 02:25:20;;;;;;;11.00;6.30;;;;;;;12.06;77.85;99291.64;105746;1259;72317;-23
2023/08/10 02:27:48;;;;;;;10.50;6.30;;;;;;;11.83;78.63;99295.27;105571;1257;61298;-23
2023/08/10 02:30:16;;;;;;;7.20;4.20;;;;;;;11.67;79.30;99298.48;105617;1267;61232;-23
2023/08/10 02:32:43;;;;;;;6.60;3.10;;;;;;;12.13;79.33;99298.01;105847;1254;73779;-24
2023/08/10 02:35:10;;;;;;;6.80;3.40;;;;;;;12.66;77.98;99300.12;105532;1257;74295;-23
2023/08/10 02:37:37;;;;;;;10.90;3.90;;;;;;;12.73;76.59;99303.20;105521;1254;72708;-23
2023/08/10 02:40:06;;;;;;;13.70;4.00;;;;;;;12.52;76.52;99303.73;105626;1255;61627;-23
2023/08/10 02:42:33;;;;;;;8.50;4.90;;;;;;;12.25;76.70;99304.11;105700;1255;61068;-25
2023/08/10 02:45:00;;;;;;;10.80;5.80;;;;;;;11.98;77.26;99301.99;105734;1260;74352;-24
2023/08/10 02:47:27;;;;;;;13.10;6.10;;;;;;;11.71;78.70;99304.88;105778;1254;74300;-24
2023/08/10 02:49:54;;;;;;;11.50;4.40;;;;;;;11.51;79.77;99306.86;105653;1254;72665;-24
2023/08/10 02:52:21;;;;;;;10.70;5.20;;;;;;;11.93;79.98;99307.77;105794;1254;61138;-24
2023/08/10 02:54:48;;;;;;;7.50;4.70;;;;;;;12.50;78.44;99309.86;105684;1258;61128;-24
2023/08/10 02:57:15;;;;;;;9.10;4.30;;;;;;;12.58;77.68;99309.23;105681;1255;73832;-24
2023/08/10 02:59:42;;;;;;;10.20;4.60;;;;;;;12.40;77.60;99315.09;105576;1260;74288;-24
2023/08/10 03:02:09;;;;;;;10.10;4.30;;;;;;;12.17;77.79;99313.52;105608;1254;72605;-24
2023/08/10 03:04:36;;;;;;;11.10;5.90;;;;;;;11.95;78.33;99310.80;105502;1254;61017;-24
2023/08/10 03:07:03;;;;;;;7.50;4.00;;;;;;;11.77;78.87;99316.23;105511;1259;61185;-24
2023/08/10 03:09:31;;;;;;;7.40;3.10;;;;;;;11.67;79.32;99317.42;105470;1260;73876;-23
2023/08/10 03:12:00;;;;;;;8.10;4.30;;;;;;;12.26;79.17;99318.98;105511;1259;74392;-23
2023/08/10 03:14:26;;;;;;;11.10;5.90;;;;;;;12.97;76.75;99318.55;105538;1254;72637;-23
2023/08/10 03:16:53;;;;;;;11.10;5.20;;;;;;;13.12;75.21;99320.61;105529;1254;61145;-23
2023/08/10 03:19:20;;;;;;;13.50;6.00;;;;;;;12.98;75.06;99317.40;105748;1255;61263;-23
2023/08/10 03:21:49;;;;;;;8.70;5.80;;;;;;;12.72;75.45;99319.31;105820;1255;73864;-23
2023/08/10 03:24:17;;;;;;;12.90;6.30;;;;;;;12.48;76.30;99319.64;105669;1260;74201;-23
2023/08/10 03:26:44;;;;;;;11.00;6.00;;;;;;;12.27;77.58;99319.27;105554;1254;72450;-24
2023/08/10 03:29:11;;;;;;;8.90;3.50;;;;;;;12.26;77.94;99324.91;105575;1254;61975;-23
2023/08/10 03:31:38;;;;;;;5.50;3.40;;;;;;;12.95;77.76;99320.80;105554;1259;61135;-23
2023/08/10 03:34:06;;;;;;;4.50;2.80;;;;;;;13.78;75.53;99323.16;105560;1254;73548;-24
2023/08/10 03:36:33;;;;;;;7.10;3.40;;;;;;;14.16;73.96;99322.83;105480;1255;74652;-23
2023/08/10 03:39:00;;;;;;;5.70;3.30;;;;;;;14.34;72.61;99324.55;105439;1254;72995;-23
2023/08/10 03:41:27;;;;;;;4.00;2.60;;;;;;;14.37;72.26;99319.36;105460;1260;61186;-24
2023/08/10 03:43:54;;;;;;;4.60;2.80;;;;;;;14.40;72.04;99319.76;105477;1259;61178;-23
2023/08/10 03:46:21;;;;;;;7.80;4.40;;;;;;;14.40;71.84;99317.34;105649;1254;73725;-23
2023/08/10 03:48:48;;;;;;;6.60;3.70;;;;;;;14.33;72.41;99320.06;105814;1254;74775;-23
2023/08/10 03:51:15;;;;;;;9.50;3.40;;;;;;;14.89;72.58;99319.25;105810;1254;72513;-23
2023/08/10 03:53:42;;;;;;;6.70;4.00;;;;;;;15.61;70.56;99321.45;105608;1259;61052;-23
2023/08/10 03:56:10;;;;;;;7.30;4.10;;;;;;;15.78;69.53;99316.54;105556;1261;61131;-23
2023/08/10 03:58:37;;;;;;;6.60;3.80;;;;;;;15.83;69.56;99314.46;105714;1254;73880;-24
2023/08/10 04:01:06;;;;;;;9.50;3.70;;;;;;;15.80;68.84;99315.05;105818;1257;74316;-23
2023/08/10 04:03:34;;;;;;;7.10;3.20;;;;;;;15.72;68.11;99315.83;105630;1254;73184;-23
2023/08/10 04:06:01;;;;;;;4.60;3.30;;;;;;;15.49;67.59;99313.69;105697;1254;61240;-23
2023/08/10 04:08:27;;;;;;;4.10;2.70;;;;;;;15.31;68.38;99311.96;105829;1258;61147;-23
2023/08/10 04:10:54;;;;;;;4.20;2.70;;;;;;;15.21;69.27;99315.15;105896;1254;73624;-24
2023/08/10 04:13:21;;;;;;;4.50;2.50;;;;;;;15.14;70.19;99315.86;105849;1254;73328;-23
2023/08/10 04:15:49;;;;;;;3.60;1.90;;;;;;;15.07;69.75;99316.38;105685;1254;72477;-23
2023/08/10 04:18:16;;;;;;;2.20;1.60;;;;;;;15.49;70.50;99315.96;105781;1254;61122;-23
2023/08/10 04:20:43;;;;;;;2.60;1.70;;;;;;;16.05;68.54;99314.52;105504;1259;61106;-23
2023/08/10 04:23:10;;;;;;;5.20;2.40;;;;;;;16.14;67.31;99311.33;105638;1254;73812;-23
2023/08/10 04:25:37;;;;;;;5.20;2.50;;;;;;;15.99;67.03;99314.06;105655;1258;74107;-22
2023/08/10 04:28:05;;;;;;;3.20;2.40;;;;;;;15.78;67.72;99318.54;105838;1253;72665;-23
2023/08/10 04:30:32;;;;;;;4.00;2.20;;;;;;;15.61;68.42;99322.11;105710;1254;61257;-23
2023/08/10 04:32:59;;;;;;;3.00;2.30;;;;;;;15.54;68.44;99327.00;105689;1258;61163;-23
2023/08/10 04:35:26;;;;;;;4.20;2.60;;;;;;;15.46;68.34;99328.00;105510;1254;73702;-23
2023/08/10 04:37:53;;;;;;;2.90;2.30;;;;;;;15.28;69.20;99332.20;105327;1254;74361;-25
2023/08/10 04:40:21;;;;;;;4.20;2.60;;;;;;;15.13;70.32;99337.31;105497;1257;72650;-22
2023/08/10 04:42:48;;;;;;;4.40;2.70;;;;;;;15.08;71.59;99339.70;105462;1261;62023;-23
2023/08/10 04:45:15;;;;;;;7.30;2.80;;;;;;;15.58;72.22;99335.34;105780;1257;61093;-23
2023/08/10 04:47:42;;;;;;;6.30;3.00;;;;;;;16.38;69.74;99332.58;105833;1254;73812;-23
2023/08/10 04:50:09;;;;;;;5.40;2.80;;;;;;;16.81;67.34;99333.86;105826;1254;74322;-23
2023/08/10 04:52:36;;;;;;;7.30;3.10;;;;;;;16.96;67.13;99330.91;105734;1254;72404;-23
2023/08/10 04:55:05;;;;;;;4.70;3.60;;;;;;;17.12;66.64;99335.98;105540;1254;61090;-22
2023/08/10 04:57:31;;;;;;;8.20;6.30;;;;;;;17.27;66.66;99336.23;105415;1254;61220;-22
2023/08/10 04:59:58;;;;;;;8.00;5.60;;;;;;;17.47;66.13;99337.27;105880;1254;73851;-23
2023/08/10 05:02:25;;;;;;;5.60;3.60;;;;;;;17.70;65.28;99338.67;105807;1254;74314;-23
2023/08/10 05:04:53;;;;;;;7.20;5.10;;;;;;;17.90;64.45;99337.64;105834;1254;72578;-23
2023/08/10 05:07:19;;;;;;;5.30;4.20;;;;;;;18.21;64.60;99339.42;105680;1254;61147;-23
2023/08/10 05:09:46;;;;;;;4.70;3.60;;;;;;;18.57;64.10;99338.44;105744;1257;61144;-23
2023/08/10 05:12:23;;;;;;;7.10;3.90;;;;;;;18.89;62.65;99340.91;105845;1254;73877;-23
2023/08/10 05:14:50;;;;;;;7.90;4.20;;;;;;;19.21;61.65;99340.05;105643;1254;74211;-23
2023/08/10 05:17:17;;;;;;;10.50;5.80;;;;;;;19.43;60.67;99344.89;105892;1253;72768;-23
2023/08/10 05:19:44;;;;;;;9.60;4.90;;;;;;;19.74;59.97;99340.90;105828;1254;61150;-23
2023/08/10 05:22:11;;;;;;;6.10;3.50;;;;;;;20.01;59.24;99343.51;105582;1254;61096;-24
2023/08/10 05:24:39;;;;;;;6.70;2.90;;;;;;;20.21;58.44;99342.77;105740;1254;73814;-23
2023/08/10 05:27:06;;;;;;;5.00;3.50;;;;;;;20.38;58.31;99349.19;105625;1260;74841;-23
2023/08/10 05:29:33;;;;;;;13.10;9.40;;;;;;;20.56;57.44;99348.45;105779;1253;73000;-24
2023/08/10 05:32:00;;;;;;;10.60;6.00;;;;;;;20.66;57.21;99348.26;105672;1254;61045;-23
2023/08/10 05:34:27;;;;;;;8.50;4.70;;;;;;;20.75;56.51;99349.67;105554;1260;61105;-23
2023/08/10 05:36:54;;;;;;;8.40;5.40;;;;;;;20.73;55.96;99352.51;105634;1254;73814;-23
2023/08/10 05:39:21;;;;;;;4.70;4.20;;;;;;;20.70;56.39;99352.30;105755;1254;74197;-24
2023/08/10 05:41:48;;;;;;;8.30;5.80;;;;;;;20.74;56.41;99353.41;105863;1254;72719;-23
2023/08/10 05:44:15;;;;;;;6.40;5.50;;;;;;;20.85;56.19;99351.21;105783;1254;61160;-23
2023/08/10 05:46:42;;;;;;;10.20;8.60;;;;;;;20.92;55.28;99352.52;105744;1255;61092;-23
2023/08/10 05:49:08;;;;;;;7.20;4.30;;;;;;;20.90;54.61;99352.41;105619;1254;73680;-23
2023/08/10 05:51:35;;;;;;;7.90;4.90;;;;;;;20.92;54.58;99349.05;105847;1254;74073;-24
2023/08/10 05:54:02;;;;;;;7.10;4.70;;;;;;;21.03;54.62;99353.65;105673;1254;72732;-23
2023/08/10 05:56:29;;;;;;;5.00;3.30;;;;;;;21.06;54.50;99351.74;105802;1253;61193;-23
2023/08/10 05:58:57;;;;;;;8.20;3.50;;;;;;;21.14;54.44;99350.48;105555;1258;61150;-23
2023/08/10 06:01:23;;;;;;;8.80;2.80;;;;;;;21.03;54.91;99354.05;105562;1254;73790;-23
2023/08/10 06:03:51;;;;;;;9.70;2.70;;;;;;;20.90;55.51;99351.23;105789;1254;73251;-23
2023/08/10 06:06:18;;;;;;;5.50;2.70;;;;;;;20.90;55.09;99351.91;105881;1254;72494;-23
2023/08/10 06:08:45;;;;;;;10.60;2.90;;;;;;;20.72;55.01;99350.14;105859;1254;61182;-23
2023/08/10 06:11:12;;;;;;;7.40;2.60;;;;;;;20.55;55.89;99352.30;105664;1259;61086;-23
2023/08/10 06:13:41;;;;;;;4.30;2.40;;;;;;;20.75;54.72;99349.39;105789;1254;73533;-23
2023/08/10 06:16:09;;;;;;;6.10;2.80;;;;;;;20.90;55.03;99349.19;105679;1260;74169;-23
2023/08/10 06:18:36;;;;;;;4.30;2.50;;;;;;;21.01;54.21;99350.41;105854;1254;72628;-23
2023/08/10 06:21:06;;;;;;;5.30;2.50;;;;;;;21.06;54.59;99348.23;105682;1254;61049;-23
2023/08/10 06:23:33;;;;;;;3.50;2.30;;;;;;;21.23;54.33;99349.02;105655;1259;61173;-23
2023/08/10 06:26:00;;;;;;;4.20;2.50;;;;;;;21.36;54.13;99348.98;105704;1253;73869;-23
2023/08/10 06:28:28;;;;;;;4.80;2.20;;;;;;;21.54;54.06;99349.27;105821;1254;74266;-23
2023/08/10 06:30:55;;;;;;;3.60;2.30;;;;;;;21.69;51.64;99349.91;105772;1254;61163;-23
2023/08/10 06:33:22;;;;;;;9.70;4.90;;;;;;;21.77;51.15;99349.04;105558;1254;61080;-24
2023/08/10 06:35:51;;;;;;;29.30;6.40;;;;;;;21.87;51.75;99352.41;105795;1253;61042;-23
2023/08/10 06:38:18;;;;;;;8.70;6.10;;;;;;;21.97;51.85;99354.30;105868;1254;73724;-23
2023/08/10 06:40:45;;;;;;;6.60;3.40;;;;;;;22.16;51.16;99352.10;105674;1254;74977;-23
2023/08/10 06:43:12;;;;;;;3.70;2.30;;;;;;;22.33;51.18;99350.17;105745;1253;71696;-23
2023/08/10 06:45:45;;;;;;;4.50;2.20;;;;;;;22.48;50.41;99350.38;105480;1254;61481;-23
2023/08/10 06:48:11;;;;;;;3.80;1.90;;;;;;;22.62;50.27;99352.85;105690;1257;61101;-23
2023/08/10 06:50:43;;;;;;;6.20;2.00;;;;;;;22.81;49.63;99347.63;105834;1254;73816;-23
2023/08/10 06:53:11;;;;;;;4.30;2.70;;;;;;;23.02;47.98;99351.01;105707;1255;74317;-23
2023/08/10 06:55:38;;;;;;;2.60;1.50;;;;;;;23.18;47.81;99349.47;105752;1253;73225;-23
2023/08/10 06:58:08;;;;;;;1.60;1.30;;;;;;;23.30;46.36;99349.91;105521;1254;61055;-23
2023/08/10 07:00:36;;;;;;;4.50;3.00;;;;;;;23.33;45.85;99350.55;105688;1254;61761;-25
2023/08/10 07:03:03;;;;;;;4.90;2.50;;;;;;;23.46;46.61;99347.84;105718;1254;73791;-26
2023/08/10 07:05:31;;;;;;;5.60;2.60;;;;;;;23.67;45.34;99347.53;105459;1254;73218;-24
2023/08/10 07:07:58;;;;;;;3.90;1.60;;;;;;;23.79;44.40;99343.13;105568;1256;72494;-23
2023/08/10 07:10:25;;;;;;;5.00;2.30;;;;;;;23.85;45.25;99343.35;105775;1254;61134;-24
2023/08/10 07:12:52;;;;;;;4.90;2.20;;;;;;;24.00;44.51;99343.38;105701;1257;61121;-25
2023/08/10 07:15:19;;;;;;;3.30;2.00;;;;;;;24.07;44.15;99343.05;105827;1254;73842;-24
2023/08/10 07:17:46;;;;;;;3.90;1.70;;;;;;;24.19;44.31;99342.63;105670;1254;74610;-23
2023/08/10 07:20:13;;;;;;;3.90;1.20;;;;;;;24.24;44.23;99341.68;105517;1260;72697;-23
2023/08/10 07:22:45;;;;;;;1.30;1.20;;;;;;;24.39;43.62;99339.76;105606;1253;61081;-23
2023/08/10 07:25:12;;;;;;;5.30;1.30;;;;;;;24.57;42.60;99339.13;105532;1257;61227;-23
2023/08/10 07:27:39;;;;;;;3.80;1.10;;;;;;;24.72;43.36;99342.04;105688;1259;73813;-22
2023/08/10 07:30:07;;;;;;;2.80;1.60;;;;;;;24.85;42.95;99336.31;105804;1254;74331;-22
2023/08/10 07:32:34;;;;;;;2.60;1.10;;;;;;;24.88;42.62;99335.73;105650;1259;72528;-23
2023/08/10 07:35:02;;;;;;;2.30;1.50;;;;;;;25.01;42.70;99338.16;105640;1254;61055;-22
2023/08/10 07:37:30;;;;;;;4.70;1.30;;;;;;;25.22;41.79;99341.52;105661;1260;62968;-23
2023/08/10 07:39:57;;;;;;;3.80;1.20;;;;;;;25.37;41.58;99342.04;105840;1253;73812;-22
2023/08/10 07:42:24;;;;;;;1.90;0.90;;;;;;;25.49;41.47;99341.83;105816;1254;75173;-22
2023/08/10 07:44:50;;;;;;;3.00;1.10;;;;;;;25.61;39.65;99344.11;105791;1254;72511;-22
2023/08/10 07:47:17;;;;;;;4.40;1.30;;;;;;;25.67;39.11;99340.70;105553;1254;61146;-24
2023/08/10 07:49:44;;;;;;;1.00;0.90;;;;;;;25.75;38.42;99345.89;105593;1257;61129;-23
2023/08/10 07:52:11;;;;;;;1.40;1.00;;;;;;;25.83;37.78;99343.82;105755;1253;73798;-23
2023/08/10 07:54:38;;;;;;;3.10;1.40;;;;;;;25.98;37.70;99343.70;103745;1257;2765082;-23
2023/08/10 07:57:05;;;;;;;2.30;1.70;;;;;;;26.19;38.41;99343.55;105799;1254;72452;-23
2023/08/10 07:59:32;;;;;;;3.90;1.40;;;;;;;26.44;37.64;99345.56;105762;1254;61152;-24
2023/08/10 08:01:59;;;;;;;2.20;1.40;;;;;;;26.56;37.95;99348.50;105806;1257;61183;-24
2023/08/10 08:04:27;;;;;;;2.00;1.10;;;;;;;26.73;37.65;99345.64;105846;1254;73782;-23
2023/08/10 08:06:54;;;;;;;5.30;1.20;;;;;;;26.91;36.75;99349.84;105853;1253;74094;-23
2023/08/10 08:09:22;;;;;;;2.50;1.40;;;;;;;27.04;36.78;99345.68;105744;1254;72658;-24
2023/08/10 08:11:49;;;;;;;1.20;1.00;;;;;;;27.11;36.90;99345.58;105641;1253;61132;-23
2023/08/10 08:14:17;;;;;;;5.00;1.00;;;;;;;27.18;36.88;99340.02;105661;1257;61137;-24
2023/08/10 08:16:44;;;;;;;1.30;1.00;;;;;;;27.13;37.13;99339.02;105690;1254;73608;-23
2023/08/10 08:19:11;;;;;;;2.00;1.20;;;;;;;27.11;37.27;99338.84;105516;1253;74274;-23
2023/08/10 08:21:38;;;;;;;1.30;1.00;;;;;;;27.10;36.36;99339.88;105476;1254;72342;-24
2023/08/10 08:24:05;;;;;;;2.00;1.00;;;;;;;26.95;37.10;99340.66;105733;1257;61160;-23
2023/08/10 08:26:33;;;;;;;4.70;1.30;;;;;;;26.87;37.69;99344.23;105831;1257;61061;-24
2023/08/10 08:29:00;;;;;;;3.30;1.40;;;;;;;26.84;37.25;99341.02;105798;1254;73950;-24
2023/08/10 08:31:27;;;;;;;3.30;1.40;;;;;;;26.87;37.14;99340.44;105696;1253;74721;-23
2023/08/10 08:33:54;;;;;;;3.20;1.60;;;;;;;26.95;37.44;99338.89;105528;1253;72653;-23
2023/08/10 08:36:21;;;;;;;1.80;1.40;;;;;;;27.05;36.83;99338.60;105651;1253;61135;-23
2023/08/10 08:38:48;;;;;;;2.80;1.50;;;;;;;27.16;36.99;99339.48;105538;1254;61185;-23
2023/08/10 08:41:16;;;;;;;2.00;1.70;;;;;;;27.24;36.83;99338.41;105609;1254;73854;-24
2023/08/10 08:43:43;;;;;;;6.80;1.70;;;;;;;27.36;36.13;99340.11;105577;1257;74340;-23
2023/08/10 08:46:10;;;;;;;2.20;1.40;;;;;;;27.40;36.06;99340.52;105419;1259;72630;-23
2023/08/10 08:48:37;;;;;;;3.80;1.30;;;;;;;27.46;35.39;99341.05;105511;1254;61100;-23
2023/08/10 08:51:05;;;;;;;3.40;1.40;;;;;;;27.54;35.39;99337.76;105548;1253;61112;-23
2023/08/10 08:53:32;;;;;;;2.70;1.20;;;;;;;27.76;34.96;99338.04;105752;1253;73827;-23
2023/08/10 08:55:59;;;;;;;3.60;1.40;;;;;;;27.86;34.39;99336.29;105681;1259;73895;-23
2023/08/10 08:58:26;;;;;;;3.20;1.60;;;;;;;28.08;34.64;99335.41;105704;1254;73105;-23
2023/08/10 09:00:53;;;;;;;2.40;1.60;;;;;;;28.05;33.65;99332.34;105588;1254;61691;-23
2023/08/10 09:03:22;;;;;;;2.80;1.20;;;;;;;28.27;34.36;99335.79;105574;1254;61144;-23
2023/08/10 09:05:49;;;;;;;3.30;1.20;;;;;;;28.66;33.70;99330.15;105383;1260;72387;-23
2023/08/10 09:08:20;;;;;;;3.40;1.00;;;;;;;28.95;32.50;99327.36;105705;1254;76305;-23
2023/08/10 09:11:26;;;;;;;3.30;1.10;;;;;;;29.35;32.58;99326.44;102662;1292;600814;-21
2023/08/10 09:14:07;;;;;;;3.90;1.60;;;;;;;29.00;31.76;99323.52;104822;1267;61129;-23
2023/08/10 09:16:38;;;;;;;2.90;1.50;;;;;;;28.85;32.44;99320.79;104785;1272;61187;-23
2023/08/10 09:19:10;;;;;;;4.00;1.40;;;;;;;28.88;31.37;99323.46;104901;1263;72219;-23
2023/08/10 09:21:38;;;;;;;2.40;1.20;;;;;;;28.94;32.05;99324.01;104882;1272;73768;-24
2023/08/10 09:24:09;;;;;;;1.60;1.10;;;;;;;29.05;30.57;99324.80;103062;1263;2809344;-24
2023/08/10 09:26:38;;;;;;;5.30;1.00;;;;;;;28.49;30.70;99325.13;105874;1254;61146;-23
2023/08/10 09:29:06;;;;;;;1.90;1.20;;;;;;;27.92;31.89;99324.98;105750;1254;61198;-22
2023/08/10 09:39:16;;;;;;;3.50;1.30;;;;;;;28.25;32.09;99326.71;102688;1290;600736;-22
2023/08/10 09:41:44;;;;;;;2.10;1.00;;;;;;;28.64;31.08;99319.86;104868;1269;61150;-23
2023/08/10 09:44:11;;;;;;;4.10;1.40;;;;;;;28.69;30.97;99323.80;104826;1267;61059;-23
2023/08/10 09:46:39;;;;;;;1.50;0.90;;;;;;;29.07;31.23;99319.95;104807;1271;72251;-24
2023/08/10 09:56:49;;;;;;;3.20;1.00;;;;;;;29.81;29.23;99324.97;102687;1290;600299;-22
2023/08/10 09:59:17;;;;;;;1.90;1.00;;;;;;;28.83;30.02;99324.66;104856;1269;61187;-23
2023/08/10 10:01:45;;;;;;;2.40;1.10;;;;;;;28.67;30.54;99324.05;104797;1271;61119;-23
2023/08/10 10:04:13;;;;;;;1.30;1.00;;;;;;;28.24;31.44;99329.23;104888;1263;70740;-23
2023/08/10 10:06:41;;;;;;;2.00;1.10;;;;;;;27.90;32.72;99336.17;104843;1263;74310;-23
2023/08/10 10:09:09;;;;;;;1.80;1.10;;;;;;;27.70;32.89;99335.61;104848;1267;72745;-23
2023/08/10 10:11:37;;;;;;;2.90;1.00;;;;;;;27.42;32.39;99333.27;102818;1263;2823310;-23
2023/08/10 10:14:04;;;;;;;3.90;1.20;;;;;;;27.40;32.23;99332.34;105194;1261;61068;-23
2023/08/10 10:16:32;;;;;;;2.70;1.10;;;;;;;27.84;31.77;99328.28;104953;1263;71004;-22
2023/08/10 10:19:00;;;;;;;6.20;1.10;;;;;;;28.49;31.13;99325.69;105229;1263;73123;-23
2023/08/10 10:21:27;;;;;;;2.20;1.00;;;;;;;28.95;31.71;99319.52;105160;1268;72685;-23
2023/08/10 10:31:34;;;;;;;1.20;0.90;;;;;;;29.95;29.70;99316.92;102545;1291;600195;-22
2023/08/10 10:34:01;;;;;;;1.20;0.80;;;;;;;30.27;28.37;99314.48;104952;1268;61178;-22
2023/08/10 10:36:31;;;;;;;2.50;1.10;;;;;;;30.42;28.11;99320.35;104956;1268;61165;-22
2023/08/10 10:39:07;;;;;;;1.70;1.00;;;;;;;30.63;27.94;99314.60;104898;1271;62102;-22
2023/08/10 10:41:35;;;;;;;1.50;0.90;;;;;;;30.49;27.09;99315.27;104894;1266;65374;-23
2023/08/10 10:44:03;;;;;;;2.40;0.90;;;;;;;29.67;27.43;99313.29;102807;1266;2899611;-23
2023/08/10 10:46:31;;;;;;;1.10;1.00;;;;;;;29.71;27.96;99310.61;105234;1264;61062;-23
2023/08/10 10:49:12;;;;;;;1.20;0.80;;;;;;;29.95;26.82;99306.23;105198;1264;61036;-23
2023/08/10 10:52:03;;;;;;;1.30;0.80;;;;;;;30.36;28.32;99296.38;105257;1276;72220;-23
2023/08/10 10:54:35;;;;;;;2.10;1.20;;;;;;;30.32;27.54;99297.65;105223;1263;73205;-23
2023/08/10 10:57:03;;;;;;;6.00;1.10;;;;;;;30.63;27.75;99292.84;104997;1262;62603;-23
2023/08/10 10:59:32;;;;;;;1.90;1.00;;;;;;;30.78;28.10;99292.09;105232;1262;61064;-23
2023/08/10 11:02:00;;;;;;;5.00;1.20;;;;;;;30.73;27.21;99291.75;105581;1260;61255;-23
2023/08/10 11:04:28;;;;;;;3.60;1.30;;;;;;;29.98;28.41;99293.83;105658;1260;72988;-23
2023/08/10 11:07:00;;;;;;;1.40;0.90;;;;;;;29.44;29.21;99294.16;105605;1258;73551;-23
2023/08/10 11:17:05;;;;;;;1.10;1.00;;;;;;;27.06;32.63;99298.23;102698;1291;599932;-22
2023/08/10 11:19:33;;;;;;;3.20;1.30;;;;;;;27.10;32.99;99301.12;104860;1266;61183;-23
2023/08/10 11:22:01;;;;;;;2.70;1.20;;;;;;;27.20;33.28;99303.36;104783;1266;61131;-23
2023/08/10 11:24:28;;;;;;;1.80;1.10;;;;;;;26.99;33.72;99306.73;104680;1266;71224;-22
2023/08/10 11:26:56;;;;;;;2.10;1.20;;;;;;;26.69;34.16;99306.38;104762;1266;73116;-23
2023/08/10 11:37:03;;;;;;;3.70;1.30;;;;;;;26.02;35.28;99302.98;102653;1293;599556;-22
2023/08/10 11:45:46;;;;;;;2.90;1.10;;;;;;;26.60;34.90;99301.54;102595;1291;600286;-22
2023/08/10 11:48:19;;;;;;;3.30;0.80;;;;;;;26.89;34.48;99296.96;104856;1266;61058;-24
2023/08/10 11:58:24;;;;;;;1.30;1.00;;;;;;;26.71;33.41;99303.27;102534;1292;600234;-22
2023/08/10 12:00:53;;;;;;;1.30;1.00;;;;;;;26.53;33.74;99302.08;104783;1266;61209;-22
2023/08/10 12:03:21;;;;;;;2.00;0.90;;;;;;;26.43;33.94;99298.63;104826;1266;61164;-22
2023/08/10 12:06:00;;;;;;;3.20;1.40;;;;;;;26.19;34.37;99298.33;105459;1260;71015;-22
2023/08/10 12:08:29;;;;;;;1.60;0.90;;;;;;;26.18;34.60;99296.98;105216;1267;73220;-22
2023/08/10 12:11:02;;;;;;;2.00;1.10;;;;;;;26.12;34.30;99295.62;102936;1262;3134760;-24
2023/08/10 12:13:46;;;;;;;1.00;0.80;;;;;;;26.01;34.17;99292.66;105410;1261;61164;-23
2023/08/10 12:16:16;;;;;;;1.50;1.20;;;;;;;25.93;34.91;99293.71;105295;1259;61095;-24
2023/08/10 12:26:19;;;;;;;1.40;0.80;;;;;;;26.65;33.69;99279.34;103091;1288;599586;-22
2023/08/10 12:36:27;;;;;;;2.60;1.00;;;;;;;26.97;33.92;99279.30;102574;1292;600191;-22